sensor_id;sensor_type;location;lat;lon;timestamp;pressure;altitude;pressure_sealevel;temperature;humidity
51245;BME280;37840;47.562;18.738;2023-02-20T00:00:53;100377.13;;;3.97;74.56
51245;BME280;37840;47.562;18.738;2023-02-20T00:03:19;100374.78;;;3.90;74.46
51245;BME280;37840;47.562;18.738;2023-02-20T00:05:45;100370.31;;;3.92;73.90
51245;BME280;37840;47.562;18.738;2023-02-20T00:08:11;100381.00;;;3.87;74.21
51245;BME280;37840;47.562;18.738;2023-02-20T00:10:37;100380.09;;;3.88;73.60
51245;BME280;37840;47.562;18.738;2023-02-20T00:13:03;100378.41;;;3.85;74.02
51245;BME280;37840;47.562;18.738;2023-02-20T00:15:29;100381.81;;;3.89;73.49
51245;BME280;37840;47.562;18.738;2023-02-20T00:17:54;100377.62;;;3.83;72.99
51245;BME280;37840;47.562;18.738;2023-02-20T00:20:23;100380.19;;;3.85;72.61
51245;BME280;37840;47.562;18.738;2023-02-20T00:22:50;100388.03;;;3.86;72.40
51245;BME280;37840;47.562;18.738;2023-02-20T00:25:18;100389.16;;;3.79;72.16
51245;BME280;37840;47.562;18.738;2023-02-20T00:27:44;100388.22;;;3.80;72.24
51245;BME280;37840;47.562;18.738;2023-02-20T00:30:14;100395.09;;;3.84;72.10
51245;BME280;37840;47.562;18.738;2023-02-20T00:32:41;100399.50;;;3.84;71.73
51245;BME280;37840;47.562;18.738;2023-02-20T00:35:11;100411.97;;;3.79;71.55
51245;BME280;37840;47.562;18.738;2023-02-20T00:37:37;100406.59;;;3.82;71.05
51245;BME280;37840;47.562;18.738;2023-02-20T00:40:03;100424.13;;;3.83;70.58
51245;BME280;37840;47.562;18.738;2023-02-20T00:42:30;100428.41;;;3.85;70.29
51245;BME280;37840;47.562;18.738;2023-02-20T00:44:56;100438.91;;;3.87;70.21
51245;BME280;37840;47.562;18.738;2023-02-20T00:47:22;100448.44;;;3.90;70.24
51245;BME280;37840;47.562;18.738;2023-02-20T00:49:48;100457.25;;;3.88;70.29
51245;BME280;37840;47.562;18.738;2023-02-20T00:52:14;100467.69;;;3.92;70.63
51245;BME280;37840;47.562;18.738;2023-02-20T00:54:40;100471.94;;;3.96;70.67
51245;BME280;37840;47.562;18.738;2023-02-20T00:57:06;100474.47;;;3.99;70.59
51245;BME280;37840;47.562;18.738;2023-02-20T00:59:32;100473.44;;;4.03;70.40
51245;BME280;37840;47.562;18.738;2023-02-20T01:01:57;100475.22;;;4.02;70.31
51245;BME280;37840;47.562;18.738;2023-02-20T01:04:24;100466.69;;;3.96;70.14
51245;BME280;37840;47.562;18.738;2023-02-20T01:06:50;100461.56;;;3.91;69.78
51245;BME280;37840;47.562;18.738;2023-02-20T01:09:15;100464.28;;;3.88;69.55
51245;BME280;37840;47.562;18.738;2023-02-20T01:11:43;100462.50;;;3.88;69.61
51245;BME280;37840;47.562;18.738;2023-02-20T01:14:10;100465.53;;;3.76;69.91
51245;BME280;37840;47.562;18.738;2023-02-20T01:16:36;100462.94;;;3.75;69.70
51245;BME280;37840;47.562;18.738;2023-02-20T01:19:02;100458.53;;;3.75;69.85
51245;BME280;37840;47.562;18.738;2023-02-20T01:21:28;100455.97;;;3.74;69.84
51245;BME280;37840;47.562;18.738;2023-02-20T01:23:54;100461.19;;;3.75;69.63
51245;BME280;37840;47.562;18.738;2023-02-20T01:26:20;100464.78;;;3.73;69.42
51245;BME280;37840;47.562;18.738;2023-02-20T01:28:46;100466.47;;;3.74;69.38
51245;BME280;37840;47.562;18.738;2023-02-20T01:31:14;100471.06;;;3.67;69.63
51245;BME280;37840;47.562;18.738;2023-02-20T01:33:41;100471.09;;;3.65;69.76
51245;BME280;37840;47.562;18.738;2023-02-20T01:36:07;100473.69;;;3.67;69.61
51245;BME280;37840;47.562;18.738;2023-02-20T01:38:34;100487.72;;;3.67;69.68
51245;BME280;37840;47.562;18.738;2023-02-20T01:41:00;100485.97;;;3.68;69.56
51245;BME280;37840;47.562;18.738;2023-02-20T01:43:26;100499.13;;;3.68;69.60
51245;BME280;37840;47.562;18.738;2023-02-20T01:45:52;100490.31;;;3.69;69.46
51245;BME280;37840;47.562;18.738;2023-02-20T01:48:24;100490.47;;;3.63;69.63
51245;BME280;37840;47.562;18.738;2023-02-20T01:50:54;100489.66;;;3.61;69.78
51245;BME280;37840;47.562;18.738;2023-02-20T01:53:22;100485.41;;;3.57;69.89
51245;BME280;37840;47.562;18.738;2023-02-20T01:55:53;100488.97;;;3.56;69.96
51245;BME280;37840;47.562;18.738;2023-02-20T01:58:39;100486.47;;;3.51;69.98
51245;BME280;37840;47.562;18.738;2023-02-20T02:01:06;100489.09;;;3.51;69.86
51245;BME280;37840;47.562;18.738;2023-02-20T02:03:36;100489.00;;;3.54;69.73
51245;BME280;37840;47.562;18.738;2023-02-20T02:06:05;100486.31;;;3.56;69.55
51245;BME280;37840;47.562;18.738;2023-02-20T02:08:33;100482.78;;;3.57;69.28
51245;BME280;37840;47.562;18.738;2023-02-20T02:11:02;100482.06;;;3.52;69.09
51245;BME280;37840;47.562;18.738;2023-02-20T02:13:29;100484.69;;;3.52;68.98
51245;BME280;37840;47.562;18.738;2023-02-20T02:16:29;100494.28;;;3.53;68.50
51245;BME280;37840;47.562;18.738;2023-02-20T02:33:31;100520.22;;;3.65;66.45
51245;BME280;37840;47.562;18.738;2023-02-20T02:44:30;100523.00;;;3.60;66.61
51245;BME280;37840;47.562;18.738;2023-02-20T02:50:11;100529.94;;;3.63;66.32
51245;BME280;37840;47.562;18.738;2023-02-20T02:52:40;100528.22;;;3.62;66.34
51245;BME280;37840;47.562;18.738;2023-02-20T02:55:21;100532.53;;;3.64;66.18
51245;BME280;37840;47.562;18.738;2023-02-20T02:57:48;100534.19;;;3.67;66.05
51245;BME280;37840;47.562;18.738;2023-02-20T03:00:24;100534.31;;;3.64;66.10
51245;BME280;37840;47.562;18.738;2023-02-20T03:03:15;100543.19;;;3.60;66.12
51245;BME280;37840;47.562;18.738;2023-02-20T03:05:48;100548.44;;;3.60;66.20
51245;BME280;37840;47.562;18.738;2023-02-20T03:08:22;100553.03;;;3.53;66.31
51245;BME280;37840;47.562;18.738;2023-02-20T03:11:03;100543.44;;;3.51;66.37
51245;BME280;37840;47.562;18.738;2023-02-20T03:13:36;100547.09;;;3.46;66.66
51245;BME280;37840;47.562;18.738;2023-02-20T03:16:29;100549.75;;;3.45;66.80
51245;BME280;37840;47.562;18.738;2023-02-20T03:19:00;100550.72;;;3.42;66.87
51245;BME280;37840;47.562;18.738;2023-02-20T03:21:29;100552.41;;;3.43;66.90
51245;BME280;37840;47.562;18.738;2023-02-20T03:23:59;100547.16;;;3.43;67.10
51245;BME280;37840;47.562;18.738;2023-02-20T03:26:31;100559.50;;;3.41;67.31
51245;BME280;37840;47.562;18.738;2023-02-20T03:29:06;100558.78;;;3.36;67.49
51245;BME280;37840;47.562;18.738;2023-02-20T03:31:47;100564.88;;;3.37;67.70
51245;BME280;37840;47.562;18.738;2023-02-20T03:34:21;100562.34;;;3.34;67.86
51245;BME280;37840;47.562;18.738;2023-02-20T03:37:19;100562.37;;;3.32;67.81
51245;BME280;37840;47.562;18.738;2023-02-20T03:40:10;100559.75;;;3.32;67.66
51245;BME280;37840;47.562;18.738;2023-02-20T03:43:01;100565.06;;;3.31;68.04
51245;BME280;37840;47.562;18.738;2023-02-20T03:45:48;100559.75;;;3.32;68.06
51245;BME280;37840;47.562;18.738;2023-02-20T03:49:03;100558.84;;;3.33;68.24
51245;BME280;37840;47.562;18.738;2023-02-20T03:51:03;100559.66;;;3.35;68.39
51245;BME280;37840;47.562;18.738;2023-02-20T03:53:29;100564.88;;;3.37;68.39
51245;BME280;37840;47.562;18.738;2023-02-20T03:55:57;100557.88;;;3.36;68.47
51245;BME280;37840;47.562;18.738;2023-02-20T03:58:26;100565.69;;;3.39;68.37
51245;BME280;37840;47.562;18.738;2023-02-20T04:00:55;100570.84;;;3.42;68.09
51245;BME280;37840;47.562;18.738;2023-02-20T04:03:27;100576.13;;;3.42;68.21
51245;BME280;37840;47.562;18.738;2023-02-20T04:05:56;100573.63;;;3.37;68.48
51245;BME280;37840;47.562;18.738;2023-02-20T04:08:28;100571.84;;;3.38;68.64
51245;BME280;37840;47.562;18.738;2023-02-20T04:11:03;100564.09;;;3.33;68.83
51245;BME280;37840;47.562;18.738;2023-02-20T04:13:31;100577.19;;;3.36;68.64
51245;BME280;37840;47.562;18.738;2023-02-20T04:16:00;100574.56;;;3.35;68.48
51245;BME280;37840;47.562;18.738;2023-02-20T04:18:27;100576.28;;;3.36;68.49
51245;BME280;37840;47.562;18.738;2023-02-20T04:20:55;100582.44;;;3.36;68.48
51245;BME280;37840;47.562;18.738;2023-02-20T04:23:24;100586.88;;;3.34;69.00
51245;BME280;37840;47.562;18.738;2023-02-20T04:28:22;100580.69;;;3.35;69.32
51245;BME280;37840;47.562;18.738;2023-02-20T04:30:50;100584.09;;;3.39;69.36
51245;BME280;37840;47.562;18.738;2023-02-20T04:33:16;100588.50;;;3.38;69.38
51245;BME280;37840;47.562;18.738;2023-02-20T04:35:42;100590.19;;;3.41;69.42
51245;BME280;37840;47.562;18.738;2023-02-20T04:38:09;100580.56;;;3.40;69.75
51245;BME280;37840;47.562;18.738;2023-02-20T04:40:35;100570.84;;;3.42;69.68
51245;BME280;37840;47.562;18.738;2023-02-20T04:43:01;100568.19;;;3.43;69.52
51245;BME280;37840;47.562;18.738;2023-02-20T04:45:27;100569.00;;;3.45;69.15
51245;BME280;37840;47.562;18.738;2023-02-20T04:47:54;100562.81;;;3.48;69.08
51245;BME280;37840;47.562;18.738;2023-02-20T04:50:26;100561.84;;;3.51;69.25
51245;BME280;37840;47.562;18.738;2023-02-20T04:52:53;100547.91;;;3.49;69.65
51245;BME280;37840;47.562;18.738;2023-02-20T04:55:19;100550.53;;;3.49;69.74
51245;BME280;37840;47.562;18.738;2023-02-20T04:57:48;100546.06;;;3.51;69.54
51245;BME280;37840;47.562;18.738;2023-02-20T05:00:16;100547.16;;;3.43;69.98
51245;BME280;37840;47.562;18.738;2023-02-20T05:02:43;100551.47;;;3.46;69.88
51245;BME280;37840;47.562;18.738;2023-02-20T05:07:47;100549.63;;;3.50;69.84
51245;BME280;37840;47.562;18.738;2023-02-20T05:10:18;100555.59;;;3.55;69.62
51245;BME280;37840;47.562;18.738;2023-02-20T05:12:45;100554.84;;;3.51;69.75
51245;BME280;37840;47.562;18.738;2023-02-20T05:15:11;100560.09;;;3.51;69.89
51245;BME280;37840;47.562;18.738;2023-02-20T05:17:37;100564.56;;;3.47;70.55
51245;BME280;37840;47.562;18.738;2023-02-20T05:20:05;100570.84;;;3.42;71.43
51245;BME280;37840;47.562;18.738;2023-02-20T05:22:31;100574.31;;;3.44;71.17
51245;BME280;37840;47.562;18.738;2023-02-20T05:24:57;100582.56;;;3.32;71.17
51245;BME280;37840;47.562;18.738;2023-02-20T05:27:24;100580.97;;;3.26;71.37
51245;BME280;37840;47.562;18.738;2023-02-20T05:29:53;100589.00;;;3.20;71.49
51245;BME280;37840;47.562;18.738;2023-02-20T05:32:20;100591.75;;;3.15;71.98
51245;BME280;37840;47.562;18.738;2023-02-20T05:34:46;100585.75;;;3.10;72.10
51245;BME280;37840;47.562;18.738;2023-02-20T05:37:15;100582.25;;;3.10;72.32
51245;BME280;37840;47.562;18.738;2023-02-20T05:39:41;100583.91;;;3.14;72.20
51245;BME280;37840;47.562;18.738;2023-02-20T05:42:07;100597.06;;;3.14;72.57
51245;BME280;37840;47.562;18.738;2023-02-20T05:44:34;100585.53;;;3.19;71.98
51245;BME280;37840;47.562;18.738;2023-02-20T05:47:00;100585.47;;;3.21;71.79
51245;BME280;37840;47.562;18.738;2023-02-20T05:49:26;100581.78;;;3.28;71.62
51245;BME280;37840;47.562;18.738;2023-02-20T05:51:55;100583.38;;;3.34;71.32
51245;BME280;37840;47.562;18.738;2023-02-20T05:54:21;100581.47;;;3.39;70.97
51245;BME280;37840;47.562;18.738;2023-02-20T05:56:48;100589.22;;;3.43;70.39
51245;BME280;37840;47.562;18.738;2023-02-20T05:59:18;100590.84;;;3.49;70.21
51245;BME280;37840;47.562;18.738;2023-02-20T06:01:44;100590.59;;;3.57;69.95
51245;BME280;37840;47.562;18.738;2023-02-20T06:04:10;100596.56;;;3.63;69.87
51245;BME280;37840;47.562;18.738;2023-02-20T06:06:38;100601.75;;;3.65;69.72
51245;BME280;37840;47.562;18.738;2023-02-20T06:09:06;100606.00;;;3.71;70.05
51245;BME280;37840;47.562;18.738;2023-02-20T06:11:41;100612.12;;;3.71;70.23
51245;BME280;37840;47.562;18.738;2023-02-20T06:14:12;100617.69;;;3.60;71.25
51245;BME280;37840;47.562;18.738;2023-02-20T06:16:38;100618.66;;;3.56;71.83
51245;BME280;37840;47.562;18.738;2023-02-20T06:19:03;100629.28;;;3.53;71.95
51245;BME280;37840;47.562;18.738;2023-02-20T06:21:31;100630.22;;;3.51;72.15
51245;BME280;37840;47.562;18.738;2023-02-20T06:24:00;100626.81;;;3.47;72.85
51245;BME280;37840;47.562;18.738;2023-02-20T06:26:27;100623.44;;;3.42;72.92
51245;BME280;37840;47.562;18.738;2023-02-20T06:28:52;100627.84;;;3.41;72.92
51245;BME280;37840;47.562;18.738;2023-02-20T06:31:28;100631.56;;;3.34;73.43
51245;BME280;37840;47.562;18.738;2023-02-20T06:33:53;100634.25;;;3.31;73.95
51245;BME280;37840;47.562;18.738;2023-02-20T06:36:25;100631.72;;;3.28;74.41
51245;BME280;37840;47.562;18.738;2023-02-20T06:38:52;100639.44;;;3.34;73.80
51245;BME280;37840;47.562;18.738;2023-02-20T06:41:18;100634.13;;;3.36;73.67
51245;BME280;37840;47.562;18.738;2023-02-20T06:43:44;100641.16;;;3.35;74.05
51245;BME280;37840;47.562;18.738;2023-02-20T06:46:11;100641.13;;;3.37;74.39
51245;BME280;37840;47.562;18.738;2023-02-20T06:48:51;100635.88;;;3.37;74.67
51245;BME280;37840;47.562;18.738;2023-02-20T06:51:23;100647.16;;;3.40;74.30
51245;BME280;37840;47.562;18.738;2023-02-20T06:53:50;100634.91;;;3.39;74.05
51245;BME280;37840;47.562;18.738;2023-02-20T06:56:21;100641.91;;;3.40;73.68
51245;BME280;37840;47.562;18.738;2023-02-20T06:58:49;100647.88;;;3.47;73.57
51245;BME280;37840;47.562;18.738;2023-02-20T07:01:17;100652.97;;;3.53;73.27
51245;BME280;37840;47.562;18.738;2023-02-20T07:03:45;100650.19;;;3.58;73.14
51245;BME280;37840;47.562;18.738;2023-02-20T07:06:11;100653.47;;;3.66;73.27
51245;BME280;37840;47.562;18.738;2023-02-20T07:08:37;100653.41;;;3.67;72.90
51245;BME280;37840;47.562;18.738;2023-02-20T07:11:03;100640.22;;;3.69;73.18
51245;BME280;37840;47.562;18.738;2023-02-20T07:13:29;100640.16;;;3.72;72.42
51245;BME280;37840;47.562;18.738;2023-02-20T07:15:55;100633.97;;;3.73;72.79
51245;BME280;37840;47.562;18.738;2023-02-20T07:18:21;100647.09;;;3.75;73.15
51245;BME280;37840;47.562;18.738;2023-02-20T07:20:52;100638.41;;;3.71;74.42
51245;BME280;37840;47.562;18.738;2023-02-20T07:23:18;100630.25;;;3.80;74.64
51245;BME280;37840;47.562;18.738;2023-02-20T07:25:44;100630.19;;;3.83;74.40
51245;BME280;37840;47.562;18.738;2023-02-20T07:28:10;100635.25;;;3.90;74.74
51245;BME280;37840;47.562;18.738;2023-02-20T07:30:36;100636.91;;;3.94;75.08
51245;BME280;37840;47.562;18.738;2023-02-20T07:33:02;100631.53;;;3.97;75.58
51245;BME280;37840;47.562;18.738;2023-02-20T07:35:28;100630.50;;;4.02;75.65
51245;BME280;37840;47.562;18.738;2023-02-20T07:37:54;100635.50;;;4.10;75.39
51245;BME280;37840;47.562;18.738;2023-02-20T07:40:20;100642.38;;;4.16;75.23
51245;BME280;37840;47.562;18.738;2023-02-20T07:42:46;100629.97;;;4.21;74.84
51245;BME280;37840;47.562;18.738;2023-02-20T07:45:12;100626.34;;;4.23;74.61
51245;BME280;37840;47.562;18.738;2023-02-20T07:47:38;100625.41;;;4.26;74.37
51245;BME280;37840;47.562;18.738;2023-02-20T07:50:04;100613.03;;;4.28;74.08
51245;BME280;37840;47.562;18.738;2023-02-20T07:52:30;100609.41;;;4.32;74.10
51245;BME280;37840;47.562;18.738;2023-02-20T07:54:56;100603.19;;;4.35;74.51
51245;BME280;37840;47.562;18.738;2023-02-20T07:57:22;100605.66;;;4.39;74.60
51245;BME280;37840;47.562;18.738;2023-02-20T07:59:48;100617.00;;;4.41;74.90
51245;BME280;37840;47.562;18.738;2023-02-20T08:02:14;100620.66;;;4.37;75.26
51245;BME280;37840;47.562;18.738;2023-02-20T08:04:40;100627.66;;;4.38;75.87
51245;BME280;37840;47.562;18.738;2023-02-20T08:07:06;100627.66;;;4.38;75.79
51245;BME280;37840;47.562;18.738;2023-02-20T08:09:32;100631.03;;;4.42;75.46
51245;BME280;37840;47.562;18.738;2023-02-20T08:11:58;100633.00;;;4.35;76.20
51245;BME280;37840;47.562;18.738;2023-02-20T08:14:24;100633.78;;;4.39;76.52
51245;BME280;37840;47.562;18.738;2023-02-20T08:16:50;100636.31;;;4.42;76.79
51245;BME280;37840;47.562;18.738;2023-02-20T08:19:16;100630.91;;;4.46;77.08
51245;BME280;37840;47.562;18.738;2023-02-20T08:21:41;100630.09;;;4.44;77.19
51245;BME280;37840;47.562;18.738;2023-02-20T08:24:07;100620.47;;;4.43;76.89
51245;BME280;37840;47.562;18.738;2023-02-20T08:26:33;100620.97;;;4.26;77.41
51245;BME280;37840;47.562;18.738;2023-02-20T08:29:00;100626.09;;;4.31;78.08
51245;BME280;37840;47.562;18.738;2023-02-20T08:31:26;100623.47;;;4.31;78.15
51245;BME280;37840;47.562;18.738;2023-02-20T08:33:53;100614.53;;;4.37;77.69
51245;BME280;37840;47.562;18.738;2023-02-20T08:36:18;100605.59;;;4.42;78.33
51245;BME280;37840;47.562;18.738;2023-02-20T08:38:45;100606.41;;;4.44;78.48
51245;BME280;37840;47.562;18.738;2023-02-20T08:41:12;100591.50;;;4.43;78.29
51245;BME280;37840;47.562;18.738;2023-02-20T08:43:39;100598.16;;;4.55;78.77
51245;BME280;37840;47.562;18.738;2023-02-20T08:46:06;100596.87;;;4.67;79.33
51245;BME280;37840;47.562;18.738;2023-02-20T08:48:33;100598.44;;;4.73;79.56
51245;BME280;37840;47.562;18.738;2023-02-20T08:50:59;100599.50;;;4.67;78.29
51245;BME280;37840;47.562;18.738;2023-02-20T08:53:25;100594.19;;;4.68;78.98
51245;BME280;37840;47.562;18.738;2023-02-20T08:55:51;100594.16;;;4.70;79.27
51245;BME280;37840;47.562;18.738;2023-02-20T08:58:21;100591.91;;;4.58;80.21
51245;BME280;37840;47.562;18.738;2023-02-20T09:00:48;100593.22;;;4.44;79.14
51245;BME280;37840;47.562;18.738;2023-02-20T09:03:14;100587.69;;;4.52;79.71
51245;BME280;37840;47.562;18.738;2023-02-20T09:05:41;100582.97;;;4.63;79.94
51245;BME280;37840;47.562;18.738;2023-02-20T09:08:07;100585.34;;;4.69;79.27
51245;BME280;37840;47.562;18.738;2023-02-20T09:10:33;100589.50;;;4.78;79.81
51245;BME280;37840;47.562;18.738;2023-02-20T09:12:59;100591.75;;;4.89;78.81
51245;BME280;37840;47.562;18.738;2023-02-20T09:15:25;100588.78;;;4.98;78.05
51245;BME280;37840;47.562;18.738;2023-02-20T09:17:51;100584.94;;;5.08;77.91
51245;BME280;37840;47.562;18.738;2023-02-20T09:20:19;100586.44;;;5.16;77.43
51245;BME280;37840;47.562;18.738;2023-02-20T09:22:46;100578.22;;;5.25;77.63
51245;BME280;37840;47.562;18.738;2023-02-20T09:25:13;100575.03;;;5.40;78.99
51245;BME280;37840;47.562;18.738;2023-02-20T09:27:40;100573.66;;;5.54;78.68
51245;BME280;37840;47.562;18.738;2023-02-20T09:30:06;100560.50;;;5.76;78.39
51245;BME280;37840;47.562;18.738;2023-02-20T09:32:32;100560.69;;;5.95;77.17
51245;BME280;37840;47.562;18.738;2023-02-20T09:34:58;100553.31;;;6.03;76.06
51245;BME280;37840;47.562;18.738;2023-02-20T09:37:24;100547.94;;;6.06;75.56
51245;BME280;37840;47.562;18.738;2023-02-20T09:39:50;100557.69;;;6.04;76.31
51245;BME280;37840;47.562;18.738;2023-02-20T09:50:05;100545.16;;;6.09;77.72
51245;BME280;37840;47.562;18.738;2023-02-20T09:52:33;100544.31;;;6.08;78.14
51245;BME280;37840;47.562;18.738;2023-02-20T09:55:07;100545.34;;;6.04;79.89
51245;BME280;37840;47.562;18.738;2023-02-20T09:57:38;100535.66;;;6.05;79.22
51245;BME280;37840;47.562;18.738;2023-02-20T10:00:12;100538.03;;;6.11;nan
51245;BME280;37840;47.562;18.738;2023-02-20T10:02:45;100524.41;;;6.22;79.06
51245;BME280;37840;47.562;18.738;2023-02-20T10:05:27;100518.87;;;6.28;78.66
51245;BME280;37840;47.562;18.738;2023-02-20T10:07:54;100513.28;;;6.36;78.14
51245;BME280;37840;47.562;18.738;2023-02-20T10:10:29;100514.87;;;6.40;77.87
51245;BME280;37840;47.562;18.738;2023-02-20T10:16:12;100506.22;;;6.57;78.21
51245;BME280;37840;47.562;18.738;2023-02-20T10:19:07;100498.03;;;6.63;78.73
51245;BME280;37840;47.562;18.738;2023-02-20T10:21:51;100495.13;;;6.69;79.02
51245;BME280;37840;47.562;18.738;2023-02-20T10:27:00;100491.75;;;6.86;79.25
51245;BME280;37840;47.562;18.738;2023-02-20T10:29:31;100490.72;;;6.90;79.35
51245;BME280;37840;47.562;18.738;2023-02-20T10:32:08;100477.37;;;6.93;79.49
51245;BME280;37840;47.562;18.738;2023-02-20T10:34:40;100475.22;;;7.01;79.70
51245;BME280;37840;47.562;18.738;2023-02-20T10:37:11;100460.94;;;7.05;80.16
51245;BME280;37840;47.562;18.738;2023-02-20T10:39:39;100465.09;;;7.11;80.02
51245;BME280;37840;47.562;18.738;2023-02-20T10:42:15;100463.81;;;7.20;78.43
51245;BME280;37840;47.562;18.738;2023-02-20T10:44:57;100467.03;;;7.26;78.63
51245;BME280;37840;47.562;18.738;2023-02-20T10:47:40;100461.25;;;7.37;78.19
51245;BME280;37840;47.562;18.738;2023-02-20T10:50:19;100457.31;;;7.46;77.97
51245;BME280;37840;47.562;18.738;2023-02-20T10:53:09;100448.19;;;7.53;77.27
51245;BME280;37840;47.562;18.738;2023-02-20T10:55:48;100442.09;;;7.70;76.53
51245;BME280;37840;47.562;18.738;2023-02-20T10:58:22;100439.47;;;7.87;76.20
51245;BME280;37840;47.562;18.738;2023-02-20T11:00:54;100429.97;;;8.01;75.69
51245;BME280;37840;47.562;18.738;2023-02-20T11:04:05;100423.22;;;8.12;74.76
51245;BME280;37840;47.562;18.738;2023-02-20T11:06:13;100424.50;;;8.23;74.31
51245;BME280;37840;47.562;18.738;2023-02-20T11:08:41;100412.41;;;8.34;73.56
51245;BME280;37840;47.562;18.738;2023-02-20T11:11:20;100408.53;;;8.42;73.39
51245;BME280;37840;47.562;18.738;2023-02-20T11:13:47;100401.97;;;8.49;72.54
51245;BME280;37840;47.562;18.738;2023-02-20T11:16:38;100397.06;;;8.59;72.58
51245;BME280;37840;47.562;18.738;2023-02-20T11:19:19;100375.87;;;8.74;72.10
51245;BME280;37840;47.562;18.738;2023-02-20T11:21:48;100373.69;;;8.83;71.73
51245;BME280;37840;47.562;18.738;2023-02-20T11:24:30;100372.84;;;8.98;72.12
51245;BME280;37840;47.562;18.738;2023-02-20T11:27:19;100379.13;;;9.13;71.88
51245;BME280;37840;47.562;18.738;2023-02-20T11:30:20;100367.97;;;9.22;71.71
51245;BME280;37840;47.562;18.738;2023-02-20T11:32:47;100371.34;;;9.42;71.34
51245;BME280;37840;47.562;18.738;2023-02-20T11:40:42;100347.50;;;10.02;68.95
51245;BME280;37840;47.562;18.738;2023-02-20T11:45:39;100335.87;;;10.19;65.49
51245;BME280;37840;47.562;18.738;2023-02-20T11:48:16;100331.66;;;10.31;65.78
51245;BME280;37840;47.562;18.738;2023-02-20T11:50:45;100330.62;;;10.48;66.38
51245;BME280;37840;47.562;18.738;2023-02-20T11:56:10;100323.50;;;10.77;65.68
51245;BME280;37840;47.562;18.738;2023-02-20T11:58:38;100300.28;;;10.93;64.06
51245;BME280;37840;47.562;18.738;2023-02-20T12:01:05;100293.06;;;10.95;64.26
51245;BME280;37840;47.562;18.738;2023-02-20T12:03:33;100297.03;;;11.02;64.60
51245;BME280;37840;47.562;18.738;2023-02-20T12:06:24;100288.78;;;11.07;64.68
51245;BME280;37840;47.562;18.738;2023-02-20T12:08:53;100283.91;;;11.14;64.40
51245;BME280;37840;47.562;18.738;2023-02-20T12:11:24;100277.87;;;11.25;64.97
51245;BME280;37840;47.562;18.738;2023-02-20T12:13:52;100276.72;;;11.29;62.84
51245;BME280;37840;47.562;18.738;2023-02-20T12:19:43;100263.03;;;11.35;63.38
51245;BME280;37840;47.562;18.738;2023-02-20T12:25:23;100260.53;;;11.32;63.16
51245;BME280;37840;47.562;18.738;2023-02-20T12:28:08;100252.38;;;11.35;63.94
51245;BME280;37840;47.562;18.738;2023-02-20T12:36:37;100247.09;;;11.48;63.06
51245;BME280;37840;47.562;18.738;2023-02-20T12:47:31;100246.63;;;11.54;61.97
51245;BME280;37840;47.562;18.738;2023-02-20T12:50:09;100243.75;;;11.44;60.97
51245;BME280;37840;47.562;18.738;2023-02-20T12:55:41;100233.75;;;11.48;61.24
51245;BME280;37840;47.562;18.738;2023-02-20T12:58:40;100237.59;;;11.43;61.92
51245;BME280;37840;47.562;18.738;2023-02-20T13:01:14;100231.09;;;11.48;62.09
51245;BME280;37840;47.562;18.738;2023-02-20T13:06:32;100243.78;;;11.57;61.73
51245;BME280;37840;47.562;18.738;2023-02-20T13:09:06;100230.56;;;11.55;60.29
51245;BME280;37840;47.562;18.738;2023-02-20T13:11:40;100232.47;;;11.53;59.65
51245;BME280;37840;47.562;18.738;2023-02-20T13:21:53;100216.16;;;11.45;61.11
51245;BME280;37840;47.562;18.738;2023-02-20T13:27:01;100211.06;;;11.42;60.97
51245;BME280;37840;47.562;18.738;2023-02-20T13:29:54;100217.22;;;11.42;60.69
51245;BME280;37840;47.562;18.738;2023-02-20T13:32:24;100221.59;;;11.43;60.55
51245;BME280;37840;47.562;18.738;2023-02-20T13:34:51;100219.97;;;11.41;60.55
51245;BME280;37840;47.562;18.738;2023-02-20T13:45:49;100200.31;;;11.43;58.97
51245;BME280;37840;47.562;18.738;2023-02-20T13:48:39;100199.25;;;11.46;59.42
51245;BME280;37840;47.562;18.738;2023-02-20T13:56:51;100178.47;;;11.51;58.95
51245;BME280;37840;47.562;18.738;2023-02-20T13:59:19;100170.59;;;11.50;58.96
51245;BME280;37840;47.562;18.738;2023-02-20T14:01:55;100167.38;;;11.45;59.08
51245;BME280;37840;47.562;18.738;2023-02-20T14:04:22;100165.13;;;11.38;58.76
51245;BME280;37840;47.562;18.738;2023-02-20T14:06:50;100164.59;;;11.33;59.25
51245;BME280;37840;47.562;18.738;2023-02-20T14:09:20;100170.84;;;11.32;58.52
51245;BME280;37840;47.562;18.738;2023-02-20T14:11:51;100177.34;;;11.28;58.95
51245;BME280;37840;47.562;18.738;2023-02-20T14:14:29;100182.66;;;11.28;58.89
51245;BME280;37840;47.562;18.738;2023-02-20T14:19:43;100181.06;;;11.26;58.79
51245;BME280;37840;47.562;18.738;2023-02-20T14:24:45;100166.59;;;11.30;58.85
51245;BME280;37840;47.562;18.738;2023-02-20T14:27:25;100161.09;;;11.33;58.89
51245;BME280;37840;47.562;18.738;2023-02-20T14:30:17;100152.03;;;11.35;58.79
51245;BME280;37840;47.562;18.738;2023-02-20T14:32:49;100151.94;;;11.37;59.15
51245;BME280;37840;47.562;18.738;2023-02-20T14:41:23;100127.44;;;11.45;57.92
51245;BME280;37840;47.562;18.738;2023-02-20T14:43:54;100120.59;;;11.40;58.00
51245;BME280;37840;47.562;18.738;2023-02-20T14:46:24;100131.47;;;11.37;57.69
51245;BME280;37840;47.562;18.738;2023-02-20T14:49:06;100141.56;;;11.32;57.48
51245;BME280;37840;47.562;18.738;2023-02-20T14:51:32;100137.88;;;11.35;56.99
51245;BME280;37840;47.562;18.738;2023-02-20T14:56:46;100133.81;;;11.29;57.43
51245;BME280;37840;47.562;18.738;2023-02-20T14:59:35;100126.66;;;11.30;57.47
51245;BME280;37840;47.562;18.738;2023-02-20T15:02:20;100128.69;;;11.26;58.05
51245;BME280;37840;47.562;18.738;2023-02-20T15:04:51;100122.41;;;11.27;58.20